Skip Navigation Links
NOAA logo - Click to go to the NOAA homepage
NOAA's National Weather Service
Alaska Aviation Weather Unit
  NWS logo - Click to go to the NWS homepage
Left Navbar Graphic     09 AKDT = 17 GMT

   
NOAA is celebrating 200 years of science, service, and stewardship. Visit the NOAA 200th celebration Web site to learn more.
USA.gov is the U.S. Government's official Web portal to all Federal, state and local government Web resources and services.
Facebook
NWS on Facebook

Important Change Regarding the AAWU Web Presence

 

Over the last several months, the AAWU has been working to navigate its webpages to a nationally supported server. Security, as well as other needs, have necessitated the change.  In the process, we have made an effort to enhance the functionality of our website, as well as some of our products. As of June 20, 2017, aawu.arh.noaa.gov will be discontinued. The new AAWU web address is weather.gov/aawu. It is now live and will run in-parallel with the old site until it is discontinued. Please send any feedback or questions regarding the new webpages to nws.ar.aawu.webauthors@noaa.gov.  Thank you for your patience during this time of transition.
AAWU Home :: Display TAF Add Bookmark
TAF PATK 231138Z 2312/2412 19007KT P6SM VCSH SCT040 BKN050 OVC100
     FM240000 20007KT P6SM SCT080 BKN200=
METAR PATK 231153Z AUTO 18006KT 10SM OVC040 07/02 A2997 RMK AO2 SLP154
     70018 T00720017 10106 20072 51009 TSNO=

METAR PATK 231253Z AUTO 00000KT 10SM -RA OVC039 06/03 A2998 RMK AO2
     RAB04E32B49 SLP157 P0000 T00610028 TSNO=

METAR PATK 231353Z AUTO 18005KT 10SM -RA FEW034 OVC045 06/03 A2998 RMK
     AO2 RAE04B21 SLP157 P0000 T00610033 TSNO=

METAR PATK 231453Z AUTO 18006KT 10SM OVC045 07/03 A2999 RMK AO2 RAE18
     SLP159 P0000 60000 T00670028 51005 TSNO=

PATK 231538Z AUTO 21004KT 10SM BKN026 BKN031 OVC050 07/03 A2999=

METAR PATK 231553Z 20003KT 10SM OVC027 07/03 A2999 RMK AO2 SLP158
     T00670033=

PATK 231605Z 21006KT 10SM BKN030 OVC035 07/03 A2999=

SPECI PATK 231605Z 21006KT 10SM BKN030 OVC035 07/03 A2999 RMK AO2
     T00720033=

METAR PATK 231653Z 24005KT 10SM SCT023 BKN065 07/03 A2999 RMK AO2
 SLP158 T00720028=


NOAA's National Weather Service
Alaska Aviation Weather Unit
6930 Sand Lake Road
Anchorage, AK 99502-1845
Disclaimer
Credits
Glossary
Privacy Policy
About Us
Career Opportunities
Contact AAWU Internet Services Site last modified: April, 17th 2012